createdAt,value
2018-07-10T00:00:07.931Z,22.45
2018-07-10T00:05:38.248Z,22.56
2018-07-10T00:10:40.224Z,22.61
2018-07-10T00:15:25.127Z,22.59
2018-07-10T00:20:09.176Z,22.46
2018-07-10T00:24:56.026Z,22.20
2018-07-10T00:29:39.493Z,22.14
2018-07-10T00:34:26.437Z,22.25
2018-07-10T00:39:11.086Z,22.47
2018-07-10T00:43:54.833Z,22.54
2018-07-10T00:48:39.451Z,22.53
2018-07-10T00:53:22.972Z,22.38
2018-07-10T00:58:07.480Z,22.52
2018-07-10T01:02:51.032Z,22.56
2018-07-10T01:07:34.604Z,22.26
2018-07-10T01:12:18.197Z,22.31
2018-07-10T01:17:04.832Z,22.37
2018-07-10T01:21:49.046Z,22.43
2018-07-10T01:26:41.598Z,22.16
2018-07-10T01:31:25.041Z,22.23
2018-07-10T01:36:09.829Z,22.39
2018-07-10T01:40:53.227Z,22.45
2018-07-10T01:45:37.947Z,22.42
2018-07-10T01:50:21.420Z,22.41
2018-07-10T01:55:05.865Z,22.04
2018-07-10T01:59:50.818Z,22.23
2018-07-10T02:04:38.439Z,22.05
2018-07-10T02:09:22.025Z,21.82
2018-07-10T02:14:05.595Z,22.11
2018-07-10T02:18:48.948Z,21.88
2018-07-10T02:23:42.362Z,22.04
2018-07-10T02:28:26.783Z,22.02
2018-07-10T02:33:10.221Z,22.14
2018-07-10T02:37:53.829Z,22.10
2018-07-10T02:42:37.225Z,22.19
2018-07-10T02:47:22.101Z,22.16
2018-07-10T02:52:07.169Z,21.99
2018-07-10T02:56:54.357Z,22.08
2018-07-10T03:01:37.853Z,22.10
2018-07-10T03:06:22.378Z,22.05
2018-07-10T03:11:06.596Z,22.05
2018-07-10T03:15:53.744Z,21.91
2018-07-10T03:20:37.298Z,21.81
2018-07-10T03:25:24.644Z,21.79
2018-07-10T03:30:08.326Z,21.97
2018-07-10T03:34:53.018Z,21.69
2018-07-10T03:39:40.520Z,21.71
2018-07-10T03:44:28.920Z,22.00
2018-07-10T03:49:12.321Z,21.90
2018-07-10T03:53:56.007Z,22.06
2018-07-10T03:58:39.532Z,22.07
2018-07-10T04:03:29.156Z,22.03
2018-07-10T04:08:17.770Z,22.01
2018-07-10T04:13:12.617Z,21.96
2018-07-10T04:18:08.748Z,21.99
2018-07-10T04:22:55.362Z,22.06
2018-07-10T04:27:52.989Z,22.08
2018-07-10T04:32:38.793Z,22.04
2018-07-10T04:37:27.770Z,22.01
2018-07-10T04:42:28.500Z,21.78
2018-07-10T04:47:22.938Z,21.74
2018-07-10T04:52:23.707Z,22.03
2018-07-10T04:57:14.498Z,22.04
2018-07-10T05:01:57.882Z,21.92
2018-07-10T05:06:41.480Z,22.05
2018-07-10T05:11:25.688Z,22.12
2018-07-10T05:16:12.228Z,22.09
2018-07-10T05:20:55.716Z,22.10
2018-07-10T05:25:46.799Z,22.07
2018-07-10T05:30:30.341Z,22.12
2018-07-10T05:35:14.881Z,22.19
2018-07-10T05:40:01.683Z,22.22
2018-07-10T05:44:46.365Z,22.23
2018-07-10T05:49:32.309Z,22.23
2018-07-10T05:54:15.991Z,22.21
2018-07-10T05:59:02.621Z,22.17
2018-07-10T06:03:49.592Z,22.35
2018-07-10T06:08:33.204Z,22.45
2018-07-10T06:13:16.805Z,22.45
2018-07-10T06:18:01.276Z,22.46
2018-07-10T06:22:44.914Z,22.49
2018-07-10T06:27:39.984Z,22.53
2018-07-10T06:32:23.378Z,22.57
2018-07-10T06:37:11.537Z,22.78
2018-07-10T06:42:01.445Z,22.69
2018-07-10T06:46:49.005Z,22.66
2018-07-10T06:51:32.593Z,22.61
2018-07-10T06:56:27.626Z,22.61
2018-07-10T07:01:11.168Z,22.55
2018-07-10T07:05:58.471Z,22.61
2018-07-10T07:10:42.070Z,22.69
2018-07-10T07:15:29.348Z,22.71
2018-07-10T07:20:12.812Z,22.69
2018-07-10T07:25:01.261Z,22.90
2018-07-10T07:29:44.655Z,23.16
2018-07-10T07:34:35.249Z,23.02
2018-07-10T07:39:18.778Z,23.13
2018-07-10T07:44:06.283Z,23.14
2018-07-10T07:48:49.565Z,23.42
2018-07-10T07:53:36.634Z,23.36
2018-07-10T07:58:20.092Z,23.22
2018-07-10T08:03:03.511Z,23.20
2018-07-10T08:07:47.166Z,23.25
2018-07-10T08:12:32.168Z,23.38
2018-07-10T08:17:16.899Z,23.56
2018-07-10T08:22:00.371Z,23.53
2018-07-10T08:26:46.692Z,23.66
2018-07-10T08:31:30.904Z,24.12
2018-07-10T08:36:15.450Z,23.68
2018-07-10T08:40:59.095Z,23.74
2018-07-10T08:45:47.972Z,23.97
2018-07-10T08:50:31.525Z,24.19
2018-07-10T08:55:19.189Z,25.34
2018-07-10T09:00:03.311Z,24.50
2018-07-10T09:04:48.042Z,24.54
2018-07-10T09:09:31.567Z,24.83
2018-07-10T09:14:17.046Z,24.86
2018-07-10T09:19:00.444Z,25.47
2018-07-10T09:23:47.119Z,25.08
2018-07-10T09:28:37.817Z,25.01
2018-07-10T09:33:22.484Z,24.70
2018-07-10T09:38:05.912Z,24.95
2018-07-10T09:42:55.239Z,24.66
2018-07-10T09:47:38.780Z,24.92
2018-07-10T09:52:22.293Z,24.88
2018-07-10T09:57:06.065Z,25.06
2018-07-10T10:01:50.617Z,25.08
2018-07-10T10:06:37.087Z,24.83
2018-07-10T10:11:20.490Z,25.33
2018-07-10T10:16:07.553Z,25.09
2018-07-10T10:20:51.009Z,25.12
2018-07-10T10:25:54.160Z,24.97
2018-07-10T10:30:38.981Z,25.35
2018-07-10T10:35:26.123Z,25.22
2018-07-10T10:40:09.573Z,26.01
2018-07-10T10:44:59.999Z,25.26
2018-07-10T10:49:43.618Z,26.33
2018-07-10T10:54:31.066Z,25.45
2018-07-10T10:59:15.375Z,25.76
2018-07-10T11:03:59.113Z,26.04
2018-07-10T11:08:42.573Z,26.37
2018-07-10T11:13:29.858Z,25.63
2018-07-10T11:20:22.369Z,25.83
2018-07-10T11:25:08.765Z,26.19
2018-07-10T11:29:52.237Z,25.92
2018-07-10T11:34:36.524Z,26.41
2018-07-10T11:39:19.847Z,26.70
2018-07-10T11:44:08.903Z,26.21
2018-07-10T11:48:52.465Z,26.10
2018-07-10T11:53:39.542Z,26.08
2018-07-10T11:58:22.999Z,26.41
2018-07-10T12:03:11.797Z,26.53
2018-07-10T12:07:58.391Z,26.92
2018-07-10T12:12:43.196Z,26.75
2018-07-10T12:17:26.647Z,26.57
2018-07-10T12:22:10.054Z,27.00
2018-07-10T12:26:54.897Z,26.72
2018-07-10T12:31:38.449Z,26.75
2018-07-10T12:36:22.160Z,26.82
2018-07-10T12:41:05.655Z,26.86
2018-07-10T12:45:50.202Z,27.47
2018-07-10T12:50:33.698Z,26.97
2018-07-10T12:55:24.372Z,26.93
2018-07-10T13:00:07.965Z,26.97
2018-07-10T13:04:57.149Z,27.19
2018-07-10T13:09:40.707Z,27.38
2018-07-10T13:14:25.427Z,28.05
2018-07-10T13:19:08.874Z,27.98
2018-07-10T13:23:52.409Z,27.86
2018-07-10T13:28:35.972Z,27.75
2018-07-10T13:33:20.755Z,28.03
2018-07-10T13:38:05.113Z,27.87
2018-07-10T13:42:58.872Z,27.91
2018-07-10T13:47:42.373Z,27.56
2018-07-10T13:52:27.085Z,27.33
2018-07-10T13:57:10.598Z,27.05
2018-07-10T14:01:54.164Z,26.91
2018-07-10T14:06:38.411Z,26.74
2018-07-10T14:11:36.618Z,26.72
2018-07-10T14:16:24.110Z,26.40
2018-07-10T14:21:09.109Z,26.33
2018-07-10T14:25:58.463Z,26.68
2018-07-10T14:30:41.979Z,27.03
2018-07-10T14:35:29.281Z,27.22
2018-07-10T14:40:12.782Z,27.01
2018-07-10T14:44:56.410Z,27.10
2018-07-10T14:49:41.059Z,27.30
2018-07-10T14:54:25.546Z,27.15
2018-07-10T14:59:09.721Z,27.13
2018-07-10T15:03:53.459Z,27.08
2018-07-10T15:08:37.038Z,27.05
2018-07-10T15:13:21.841Z,27.05
2018-07-10T15:18:10.771Z,27.02
2018-07-10T15:22:57.949Z,27.10
2018-07-10T15:27:41.425Z,27.15
2018-07-10T15:32:29.446Z,27.14
2018-07-10T15:37:12.939Z,27.09
2018-07-10T15:41:56.607Z,27.07
2018-07-10T15:46:40.175Z,27.02
2018-07-10T15:51:23.875Z,27.08
2018-07-10T15:56:11.395Z,27.08
2018-07-10T16:00:54.919Z,27.03
2018-07-10T16:05:42.342Z,26.98
2018-07-10T16:10:27.019Z,26.97
2018-07-10T16:15:13.995Z,26.96
2018-07-10T16:20:08.895Z,26.97
2018-07-10T16:25:00.777Z,27.01
2018-07-10T16:29:45.690Z,26.94
2018-07-10T16:34:33.142Z,26.95
2018-07-10T16:39:17.099Z,26.82
2018-07-10T16:44:06.144Z,26.78
2018-07-10T16:49:05.924Z,26.94
2018-07-10T16:54:01.588Z,26.95
2018-07-10T16:58:45.157Z,26.92
2018-07-10T17:03:30.446Z,26.89
2018-07-10T17:08:15.188Z,26.90
2018-07-10T17:12:58.665Z,26.85
2018-07-10T17:17:42.170Z,26.91
2018-07-10T17:22:26.764Z,26.89
2018-07-10T17:27:10.176Z,26.87
2018-07-10T17:31:57.678Z,26.85
2018-07-10T17:36:42.455Z,26.78
2018-07-10T17:41:27.812Z,26.79
2018-07-10T17:46:12.920Z,26.69
2018-07-10T17:50:56.275Z,26.51
2018-07-10T17:55:41.049Z,26.61
2018-07-10T18:00:24.502Z,26.68
2018-07-10T18:05:12.015Z,26.69
2018-07-10T18:09:55.543Z,26.53
2018-07-10T18:14:51.954Z,26.42
2018-07-10T18:19:40.145Z,26.30
2018-07-10T18:24:24.112Z,26.52
2018-07-10T18:29:07.794Z,26.37
2018-07-10T18:34:01.264Z,26.51
2018-07-10T18:38:50.878Z,26.42
2018-07-10T18:43:37.115Z,26.14
2018-07-10T18:48:25.732Z,26.01
2018-07-10T18:53:10.905Z,26.13
2018-07-10T18:58:01.946Z,25.91
2018-07-10T19:02:53.819Z,25.65
2018-07-10T19:07:40.125Z,25.54
2018-07-10T19:12:23.769Z,25.94
2018-07-10T19:17:13.989Z,26.02
2018-07-10T19:22:02.096Z,25.94
2018-07-10T19:26:47.721Z,25.79
2018-07-10T19:31:33.844Z,25.97
2018-07-10T19:36:18.270Z,25.75
2018-07-10T19:41:01.786Z,25.61
2018-07-10T19:45:49.612Z,26.00
2018-07-10T19:50:38.853Z,26.13
2018-07-10T19:55:27.447Z,26.00
2018-07-10T20:00:10.847Z,26.08
2018-07-10T20:05:07.770Z,25.92
2018-07-10T20:09:58.293Z,25.89
2018-07-10T20:14:58.983Z,25.98
2018-07-10T20:19:48.205Z,26.18
2018-07-10T20:24:33.131Z,26.10
2018-07-10T20:29:27.548Z,25.68
2018-07-10T20:34:56.817Z,25.93
2018-07-10T20:39:40.311Z,25.96
2018-07-10T20:44:24.736Z,25.98
2018-07-10T20:49:08.229Z,26.00
2018-07-10T20:54:21.484Z,25.93
2018-07-10T20:59:13.103Z,25.68
2018-07-10T21:04:02.642Z,25.78
2018-07-10T21:09:11.469Z,25.81
2018-07-10T21:14:00.914Z,25.74
2018-07-10T21:19:21.390Z,25.35
2018-07-10T21:24:21.356Z,25.65
2018-07-10T21:29:22.629Z,25.06
2018-07-10T21:34:25.473Z,25.49
2018-07-10T21:39:16.130Z,25.49
2018-07-10T21:46:11.783Z,25.50
2018-07-10T21:50:55.324Z,25.41
2018-07-10T21:55:38.887Z,25.39
2018-07-10T22:00:32.055Z,25.06
2018-07-10T22:05:18.620Z,25.35
2018-07-10T22:10:08.340Z,25.05
2018-07-10T22:14:52.996Z,24.99
2018-07-10T22:19:39.912Z,25.09
2018-07-10T22:24:26.653Z,25.17
2018-07-10T22:29:10.948Z,25.02
2018-07-10T22:33:54.560Z,25.13
2018-07-10T22:38:38.068Z,24.97
2018-07-10T22:43:21.821Z,25.02
2018-07-10T22:48:05.323Z,24.98
2018-07-10T22:52:57.038Z,25.02
2018-07-10T22:57:40.448Z,25.04
2018-07-10T23:02:24.564Z,25.00
2018-07-10T23:07:09.027Z,24.79
2018-07-10T23:11:53.413Z,24.88
2018-07-10T23:16:40.163Z,24.70
2018-07-10T23:21:28.146Z,24.29
2018-07-10T23:26:13.860Z,24.46
2018-07-10T23:30:57.222Z,24.39
2018-07-10T23:35:42.098Z,24.45
2018-07-10T23:40:25.479Z,24.47
2018-07-10T23:45:22.056Z,24.32
